<?xml version="1.0" encoding="UTF-8" standalone="no" ?>
<gpx xmlns="http://www.topografix.com/GPX/1/1" xmlns:xsi="http://www.w3.org/2001/XMLSchema-instance" xsi:schemaLocation="http://www.topografix.com/GPX/1/1 http://www.topografix.com/GPX/1/1/gpx.xsd" version="1.1" creator="VisuGPX - https://www.visugpx.com">
  <metadata>
    <name>COURGENT ROSAY VILLETE VERT SEPTEUIL</name>
    <desc><![CDATA[FAIT]]></desc>
  </metadata>
  <trk>
    <name><![CDATA[Courgent-Rosay-Villette-Vert-Septeuil-17083640]]></name>
    <trkseg>
      <trkpt lat="48.89383" lon="1.65919">
        <ele>66</ele>
        <time>2023-06-30T13:42:31Z</time>
      </trkpt>
      <trkpt lat="48.8939" lon="1.65895">
        <ele>67</ele>
        <time>2023-06-30T13:42:54Z</time>
      </trkpt>
      <trkpt lat="48.89395" lon="1.65904">
        <ele>67</ele>
        <time>2023-06-30T13:43:04Z</time>
      </trkpt>
      <trkpt lat="48.89402" lon="1.65921">
        <ele>67</ele>
        <time>2023-06-30T13:43:22Z</time>
      </trkpt>
      <trkpt lat="48.89426" lon="1.65913">
        <ele>70</ele>
        <time>2023-06-30T13:43:55Z</time>
      </trkpt>
      <trkpt lat="48.89434" lon="1.65916">
        <ele>72</ele>
        <time>2023-06-30T13:44:06Z</time>
      </trkpt>
      <trkpt lat="48.89446" lon="1.65913">
        <ele>74</ele>
        <time>2023-06-30T13:44:22Z</time>
      </trkpt>
      <trkpt lat="48.89456" lon="1.65952">
        <ele>76</ele>
        <time>2023-06-30T13:44:59Z</time>
      </trkpt>
      <trkpt lat="48.89457" lon="1.65975">
        <ele>75</ele>
        <time>2023-06-30T13:45:19Z</time>
      </trkpt>
      <trkpt lat="48.89461" lon="1.66007">
        <ele>75</ele>
        <time>2023-06-30T13:45:48Z</time>
      </trkpt>
      <trkpt lat="48.89468" lon="1.66046">
        <ele>76</ele>
        <time>2023-06-30T13:46:23Z</time>
      </trkpt>
      <trkpt lat="48.89477" lon="1.66077">
        <ele>77</ele>
        <time>2023-06-30T13:46:53Z</time>
      </trkpt>
      <trkpt lat="48.89496" lon="1.66131">
        <ele>77</ele>
        <time>2023-06-30T13:47:46Z</time>
      </trkpt>
      <trkpt lat="48.89514" lon="1.6617">
        <ele>77</ele>
        <time>2023-06-30T13:48:28Z</time>
      </trkpt>
      <trkpt lat="48.89569" lon="1.66269">
        <ele>78</ele>
        <time>2023-06-30T13:50:22Z</time>
      </trkpt>
      <trkpt lat="48.89579" lon="1.66299">
        <ele>76</ele>
        <time>2023-06-30T13:50:51Z</time>
      </trkpt>
      <trkpt lat="48.89671" lon="1.66474">
        <ele>74</ele>
        <time>2023-06-30T13:54:08Z</time>
      </trkpt>
      <trkpt lat="48.89685" lon="1.66493">
        <ele>75</ele>
        <time>2023-06-30T13:54:33Z</time>
      </trkpt>
      <trkpt lat="48.89751" lon="1.6655">
        <ele>79</ele>
        <time>2023-06-30T13:56:14Z</time>
      </trkpt>
      <trkpt lat="48.89762" lon="1.66563">
        <ele>79</ele>
        <time>2023-06-30T13:56:33Z</time>
      </trkpt>
      <trkpt lat="48.89768" lon="1.66573">
        <ele>79</ele>
        <time>2023-06-30T13:56:45Z</time>
      </trkpt>
      <trkpt lat="48.89779" lon="1.66611">
        <ele>76</ele>
        <time>2023-06-30T13:57:21Z</time>
      </trkpt>
      <trkpt lat="48.89791" lon="1.66631">
        <ele>75</ele>
        <time>2023-06-30T13:57:45Z</time>
      </trkpt>
      <trkpt lat="48.89812" lon="1.66661">
        <ele>73</ele>
        <time>2023-06-30T13:58:23Z</time>
      </trkpt>
      <trkpt lat="48.89825" lon="1.66685">
        <ele>71</ele>
        <time>2023-06-30T13:58:51Z</time>
      </trkpt>
      <trkpt lat="48.89835" lon="1.66725">
        <ele>67</ele>
        <time>2023-06-30T13:59:28Z</time>
      </trkpt>
      <trkpt lat="48.89841" lon="1.66763">
        <ele>64</ele>
        <time>2023-06-30T14:00:03Z</time>
      </trkpt>
      <trkpt lat="48.89843" lon="1.66794">
        <ele>63</ele>
        <time>2023-06-30T14:00:30Z</time>
      </trkpt>
      <trkpt lat="48.89892" lon="1.66815">
        <ele>66</ele>
        <time>2023-06-30T14:01:38Z</time>
      </trkpt>
      <trkpt lat="48.89928" lon="1.66827">
        <ele>66</ele>
        <time>2023-06-30T14:02:27Z</time>
      </trkpt>
      <trkpt lat="48.9001" lon="1.66851">
        <ele>67</ele>
        <time>2023-06-30T14:04:18Z</time>
      </trkpt>
      <trkpt lat="48.90039" lon="1.6685">
        <ele>69</ele>
        <time>2023-06-30T14:04:57Z</time>
      </trkpt>
      <trkpt lat="48.90123" lon="1.66812">
        <ele>74</ele>
        <time>2023-06-30T14:06:54Z</time>
      </trkpt>
      <trkpt lat="48.90234" lon="1.66753">
        <ele>75</ele>
        <time>2023-06-30T14:09:31Z</time>
      </trkpt>
      <trkpt lat="48.90234" lon="1.66756">
        <ele>75</ele>
        <time>2023-06-30T14:09:34Z</time>
      </trkpt>
      <trkpt lat="48.90232" lon="1.66899">
        <ele>63</ele>
        <time>2023-06-30T14:11:39Z</time>
      </trkpt>
      <trkpt lat="48.90237" lon="1.66998">
        <ele>60</ele>
        <time>2023-06-30T14:13:06Z</time>
      </trkpt>
      <trkpt lat="48.90252" lon="1.67003">
        <ele>60</ele>
        <time>2023-06-30T14:13:27Z</time>
      </trkpt>
      <trkpt lat="48.90277" lon="1.66997">
        <ele>60</ele>
        <time>2023-06-30T14:14:00Z</time>
      </trkpt>
      <trkpt lat="48.9034" lon="1.66957">
        <ele>62</ele>
        <time>2023-06-30T14:15:32Z</time>
      </trkpt>
      <trkpt lat="48.90382" lon="1.66955">
        <ele>60</ele>
        <time>2023-06-30T14:16:28Z</time>
      </trkpt>
      <trkpt lat="48.90472" lon="1.66955">
        <ele>59</ele>
        <time>2023-06-30T14:18:28Z</time>
      </trkpt>
      <trkpt lat="48.90555" lon="1.66979">
        <ele>60</ele>
        <time>2023-06-30T14:20:20Z</time>
      </trkpt>
      <trkpt lat="48.90609" lon="1.67021">
        <ele>60</ele>
        <time>2023-06-30T14:21:41Z</time>
      </trkpt>
      <trkpt lat="48.90644" lon="1.67064">
        <ele>60</ele>
        <time>2023-06-30T14:22:41Z</time>
      </trkpt>
      <trkpt lat="48.90734" lon="1.67132">
        <ele>55</ele>
        <time>2023-06-30T14:24:56Z</time>
      </trkpt>
      <trkpt lat="48.90762" lon="1.67145">
        <ele>55</ele>
        <time>2023-06-30T14:25:35Z</time>
      </trkpt>
      <trkpt lat="48.90866" lon="1.67143">
        <ele>58</ele>
        <time>2023-06-30T14:27:53Z</time>
      </trkpt>
      <trkpt lat="48.90865" lon="1.67146">
        <ele>57</ele>
        <time>2023-06-30T14:27:56Z</time>
      </trkpt>
      <trkpt lat="48.90866" lon="1.67143">
        <ele>58</ele>
        <time>2023-06-30T14:27:59Z</time>
      </trkpt>
      <trkpt lat="48.909" lon="1.67146">
        <ele>58</ele>
        <time>2023-06-30T14:28:45Z</time>
      </trkpt>
      <trkpt lat="48.90914" lon="1.67136">
        <ele>59</ele>
        <time>2023-06-30T14:29:05Z</time>
      </trkpt>
      <trkpt lat="48.90962" lon="1.67126">
        <ele>59</ele>
        <time>2023-06-30T14:30:10Z</time>
      </trkpt>
      <trkpt lat="48.91038" lon="1.67123">
        <ele>59</ele>
        <time>2023-06-30T14:31:52Z</time>
      </trkpt>
      <trkpt lat="48.91076" lon="1.67135">
        <ele>57</ele>
        <time>2023-06-30T14:32:43Z</time>
      </trkpt>
      <trkpt lat="48.91107" lon="1.67148">
        <ele>57</ele>
        <time>2023-06-30T14:33:26Z</time>
      </trkpt>
      <trkpt lat="48.91117" lon="1.67155">
        <ele>57</ele>
        <time>2023-06-30T14:33:41Z</time>
      </trkpt>
      <trkpt lat="48.91157" lon="1.67201">
        <ele>55</ele>
        <time>2023-06-30T14:34:48Z</time>
      </trkpt>
      <trkpt lat="48.91176" lon="1.67215">
        <ele>55</ele>
        <time>2023-06-30T14:35:16Z</time>
      </trkpt>
      <trkpt lat="48.91226" lon="1.67238">
        <ele>55</ele>
        <time>2023-06-30T14:36:26Z</time>
      </trkpt>
      <trkpt lat="48.91254" lon="1.67256">
        <ele>55</ele>
        <time>2023-06-30T14:37:06Z</time>
      </trkpt>
      <trkpt lat="48.91308" lon="1.673">
        <ele>54</ele>
        <time>2023-06-30T14:38:28Z</time>
      </trkpt>
      <trkpt lat="48.91337" lon="1.67321">
        <ele>53</ele>
        <time>2023-06-30T14:39:11Z</time>
      </trkpt>
      <trkpt lat="48.91371" lon="1.6734">
        <ele>54</ele>
        <time>2023-06-30T14:39:59Z</time>
      </trkpt>
      <trkpt lat="48.91437" lon="1.67369">
        <ele>55</ele>
        <time>2023-06-30T14:41:31Z</time>
      </trkpt>
      <trkpt lat="48.91452" lon="1.67379">
        <ele>55</ele>
        <time>2023-06-30T14:41:53Z</time>
      </trkpt>
      <trkpt lat="48.91469" lon="1.67395">
        <ele>54</ele>
        <time>2023-06-30T14:42:19Z</time>
      </trkpt>
      <trkpt lat="48.91489" lon="1.67416">
        <ele>54</ele>
        <time>2023-06-30T14:42:52Z</time>
      </trkpt>
      <trkpt lat="48.91497" lon="1.67426">
        <ele>54</ele>
        <time>2023-06-30T14:43:06Z</time>
      </trkpt>
      <trkpt lat="48.91508" lon="1.67445">
        <ele>54</ele>
        <time>2023-06-30T14:43:28Z</time>
      </trkpt>
      <trkpt lat="48.91514" lon="1.67467">
        <ele>53</ele>
        <time>2023-06-30T14:43:49Z</time>
      </trkpt>
      <trkpt lat="48.91525" lon="1.67512">
        <ele>53</ele>
        <time>2023-06-30T14:44:31Z</time>
      </trkpt>
      <trkpt lat="48.91537" lon="1.6757">
        <ele>54</ele>
        <time>2023-06-30T14:45:24Z</time>
      </trkpt>
      <trkpt lat="48.91547" lon="1.67605">
        <ele>55</ele>
        <time>2023-06-30T14:45:58Z</time>
      </trkpt>
      <trkpt lat="48.91593" lon="1.67697">
        <ele>56</ele>
        <time>2023-06-30T14:47:39Z</time>
      </trkpt>
      <trkpt lat="48.91625" lon="1.67769">
        <ele>56</ele>
        <time>2023-06-30T14:48:55Z</time>
      </trkpt>
      <trkpt lat="48.91641" lon="1.67788">
        <ele>56</ele>
        <time>2023-06-30T14:49:22Z</time>
      </trkpt>
      <trkpt lat="48.91657" lon="1.67799">
        <ele>56</ele>
        <time>2023-06-30T14:49:46Z</time>
      </trkpt>
      <trkpt lat="48.91667" lon="1.6781">
        <ele>55</ele>
        <time>2023-06-30T14:50:02Z</time>
      </trkpt>
      <trkpt lat="48.91669" lon="1.67809">
        <ele>55</ele>
        <time>2023-06-30T14:50:05Z</time>
      </trkpt>
      <trkpt lat="48.91677" lon="1.67807">
        <ele>56</ele>
        <time>2023-06-30T14:50:16Z</time>
      </trkpt>
      <trkpt lat="48.91705" lon="1.6783">
        <ele>56</ele>
        <time>2023-06-30T14:50:58Z</time>
      </trkpt>
      <trkpt lat="48.91727" lon="1.67858">
        <ele>56</ele>
        <time>2023-06-30T14:51:37Z</time>
      </trkpt>
      <trkpt lat="48.9175" lon="1.67834">
        <ele>58</ele>
        <time>2023-06-30T14:52:14Z</time>
      </trkpt>
      <trkpt lat="48.91785" lon="1.67805">
        <ele>60</ele>
        <time>2023-06-30T14:53:07Z</time>
      </trkpt>
      <trkpt lat="48.91794" lon="1.67806">
        <ele>61</ele>
        <time>2023-06-30T14:53:19Z</time>
      </trkpt>
      <trkpt lat="48.91817" lon="1.6783">
        <ele>61</ele>
        <time>2023-06-30T14:53:56Z</time>
      </trkpt>
      <trkpt lat="48.91882" lon="1.67996">
        <ele>62</ele>
        <time>2023-06-30T14:56:46Z</time>
      </trkpt>
      <trkpt lat="48.91909" lon="1.6806">
        <ele>63</ele>
        <time>2023-06-30T14:57:52Z</time>
      </trkpt>
      <trkpt lat="48.91918" lon="1.68084">
        <ele>63</ele>
        <time>2023-06-30T14:58:17Z</time>
      </trkpt>
      <trkpt lat="48.91928" lon="1.68151">
        <ele>65</ele>
        <time>2023-06-30T14:59:17Z</time>
      </trkpt>
      <trkpt lat="48.91992" lon="1.68287">
        <ele>67</ele>
        <time>2023-06-30T15:01:44Z</time>
      </trkpt>
      <trkpt lat="48.92031" lon="1.68362">
        <ele>66</ele>
        <time>2023-06-30T15:03:07Z</time>
      </trkpt>
      <trkpt lat="48.92049" lon="1.68387">
        <ele>65</ele>
        <time>2023-06-30T15:03:40Z</time>
      </trkpt>
      <trkpt lat="48.92082" lon="1.68425">
        <ele>64</ele>
        <time>2023-06-30T15:04:35Z</time>
      </trkpt>
      <trkpt lat="48.9214" lon="1.68481">
        <ele>63</ele>
        <time>2023-06-30T15:06:07Z</time>
      </trkpt>
      <trkpt lat="48.92167" lon="1.68502">
        <ele>62</ele>
        <time>2023-06-30T15:06:47Z</time>
      </trkpt>
      <trkpt lat="48.92219" lon="1.68518">
        <ele>60</ele>
        <time>2023-06-30T15:07:58Z</time>
      </trkpt>
      <trkpt lat="48.92244" lon="1.68519">
        <ele>59</ele>
        <time>2023-06-30T15:08:31Z</time>
      </trkpt>
      <trkpt lat="48.92318" lon="1.68509">
        <ele>61</ele>
        <time>2023-06-30T15:10:11Z</time>
      </trkpt>
      <trkpt lat="48.92343" lon="1.68511">
        <ele>62</ele>
        <time>2023-06-30T15:10:44Z</time>
      </trkpt>
      <trkpt lat="48.92363" lon="1.68519">
        <ele>62</ele>
        <time>2023-06-30T15:11:12Z</time>
      </trkpt>
      <trkpt lat="48.92362" lon="1.68521">
        <ele>61</ele>
        <time>2023-06-30T15:11:14Z</time>
      </trkpt>
      <trkpt lat="48.92345" lon="1.68561">
        <ele>59</ele>
        <time>2023-06-30T15:11:56Z</time>
      </trkpt>
      <trkpt lat="48.92338" lon="1.68593">
        <ele>57</ele>
        <time>2023-06-30T15:12:25Z</time>
      </trkpt>
      <trkpt lat="48.92336" lon="1.68641">
        <ele>55</ele>
        <time>2023-06-30T15:13:07Z</time>
      </trkpt>
      <trkpt lat="48.92336" lon="1.68715">
        <ele>53</ele>
        <time>2023-06-30T15:14:12Z</time>
      </trkpt>
      <trkpt lat="48.92346" lon="1.68748">
        <ele>52</ele>
        <time>2023-06-30T15:14:44Z</time>
      </trkpt>
      <trkpt lat="48.9233" lon="1.68765">
        <ele>52</ele>
        <time>2023-06-30T15:15:10Z</time>
      </trkpt>
      <trkpt lat="48.92313" lon="1.68789">
        <ele>51</ele>
        <time>2023-06-30T15:15:41Z</time>
      </trkpt>
      <trkpt lat="48.92302" lon="1.68814">
        <ele>51</ele>
        <time>2023-06-30T15:16:07Z</time>
      </trkpt>
      <trkpt lat="48.92294" lon="1.68839">
        <ele>50</ele>
        <time>2023-06-30T15:16:32Z</time>
      </trkpt>
      <trkpt lat="48.92284" lon="1.68873">
        <ele>50</ele>
        <time>2023-06-30T15:17:04Z</time>
      </trkpt>
      <trkpt lat="48.92265" lon="1.68939">
        <ele>50</ele>
        <time>2023-06-30T15:18:08Z</time>
      </trkpt>
      <trkpt lat="48.92301" lon="1.68974">
        <ele>50</ele>
        <time>2023-06-30T15:19:05Z</time>
      </trkpt>
      <trkpt lat="48.92307" lon="1.68982">
        <ele>50</ele>
        <time>2023-06-30T15:19:15Z</time>
      </trkpt>
      <trkpt lat="48.92312" lon="1.69">
        <ele>51</ele>
        <time>2023-06-30T15:19:32Z</time>
      </trkpt>
      <trkpt lat="48.92354" lon="1.69044">
        <ele>54</ele>
        <time>2023-06-30T15:20:40Z</time>
      </trkpt>
      <trkpt lat="48.92362" lon="1.69057">
        <ele>55</ele>
        <time>2023-06-30T15:20:56Z</time>
      </trkpt>
      <trkpt lat="48.9238" lon="1.69093">
        <ele>58</ele>
        <time>2023-06-30T15:21:36Z</time>
      </trkpt>
      <trkpt lat="48.92426" lon="1.69125">
        <ele>58</ele>
        <time>2023-06-30T15:22:43Z</time>
      </trkpt>
      <trkpt lat="48.92429" lon="1.69131">
        <ele>58</ele>
        <time>2023-06-30T15:22:50Z</time>
      </trkpt>
      <trkpt lat="48.92431" lon="1.69138">
        <ele>58</ele>
        <time>2023-06-30T15:22:57Z</time>
      </trkpt>
      <trkpt lat="48.92419" lon="1.69182">
        <ele>59</ele>
        <time>2023-06-30T15:23:38Z</time>
      </trkpt>
      <trkpt lat="48.92416" lon="1.69206">
        <ele>60</ele>
        <time>2023-06-30T15:24:00Z</time>
      </trkpt>
      <trkpt lat="48.92438" lon="1.69217">
        <ele>60</ele>
        <time>2023-06-30T15:24:31Z</time>
      </trkpt>
      <trkpt lat="48.92469" lon="1.69228">
        <ele>60</ele>
        <time>2023-06-30T15:25:13Z</time>
      </trkpt>
      <trkpt lat="48.92484" lon="1.69231">
        <ele>60</ele>
        <time>2023-06-30T15:25:33Z</time>
      </trkpt>
      <trkpt lat="48.92499" lon="1.69227">
        <ele>60</ele>
        <time>2023-06-30T15:25:54Z</time>
      </trkpt>
      <trkpt lat="48.92551" lon="1.69208">
        <ele>56</ele>
        <time>2023-06-30T15:27:05Z</time>
      </trkpt>
      <trkpt lat="48.92605" lon="1.69209">
        <ele>54</ele>
        <time>2023-06-30T15:28:17Z</time>
      </trkpt>
      <trkpt lat="48.92677" lon="1.69228">
        <ele>52</ele>
        <time>2023-06-30T15:29:55Z</time>
      </trkpt>
      <trkpt lat="48.92718" lon="1.69224">
        <ele>50</ele>
        <time>2023-06-30T15:30:49Z</time>
      </trkpt>
      <trkpt lat="48.92736" lon="1.69227">
        <ele>50</ele>
        <time>2023-06-30T15:31:14Z</time>
      </trkpt>
      <trkpt lat="48.9275" lon="1.69238">
        <ele>50</ele>
        <time>2023-06-30T15:31:35Z</time>
      </trkpt>
      <trkpt lat="48.92775" lon="1.69271">
        <ele>52</ele>
        <time>2023-06-30T15:32:19Z</time>
      </trkpt>
      <trkpt lat="48.92805" lon="1.69299">
        <ele>53</ele>
        <time>2023-06-30T15:33:06Z</time>
      </trkpt>
      <trkpt lat="48.92862" lon="1.69358">
        <ele>52</ele>
        <time>2023-06-30T15:34:38Z</time>
      </trkpt>
      <trkpt lat="48.92899" lon="1.69381">
        <ele>49</ele>
        <time>2023-06-30T15:35:31Z</time>
      </trkpt>
      <trkpt lat="48.92921" lon="1.69391">
        <ele>48</ele>
        <time>2023-06-30T15:36:02Z</time>
      </trkpt>
      <trkpt lat="48.92948" lon="1.69403">
        <ele>47</ele>
        <time>2023-06-30T15:36:39Z</time>
      </trkpt>
      <trkpt lat="48.93047" lon="1.69425">
        <ele>47</ele>
        <time>2023-06-30T15:38:53Z</time>
      </trkpt>
      <trkpt lat="48.93061" lon="1.69424">
        <ele>47</ele>
        <time>2023-06-30T15:39:11Z</time>
      </trkpt>
      <trkpt lat="48.93168" lon="1.69407">
        <ele>47</ele>
        <time>2023-06-30T15:41:35Z</time>
      </trkpt>
      <trkpt lat="48.93211" lon="1.69407">
        <ele>47</ele>
        <time>2023-06-30T15:42:32Z</time>
      </trkpt>
      <trkpt lat="48.93213" lon="1.69408">
        <ele>47</ele>
        <time>2023-06-30T15:42:35Z</time>
      </trkpt>
      <trkpt lat="48.93256" lon="1.69403">
        <ele>47</ele>
        <time>2023-06-30T15:43:33Z</time>
      </trkpt>
      <trkpt lat="48.93332" lon="1.69354">
        <ele>47</ele>
        <time>2023-06-30T15:45:23Z</time>
      </trkpt>
      <trkpt lat="48.93355" lon="1.69345">
        <ele>47</ele>
        <time>2023-06-30T15:45:55Z</time>
      </trkpt>
      <trkpt lat="48.93375" lon="1.69341">
        <ele>46</ele>
        <time>2023-06-30T15:46:21Z</time>
      </trkpt>
      <trkpt lat="48.93392" lon="1.69342">
        <ele>46</ele>
        <time>2023-06-30T15:46:44Z</time>
      </trkpt>
      <trkpt lat="48.9345" lon="1.69359">
        <ele>46</ele>
        <time>2023-06-30T15:48:03Z</time>
      </trkpt>
      <trkpt lat="48.93524" lon="1.69366">
        <ele>45</ele>
        <time>2023-06-30T15:49:42Z</time>
      </trkpt>
      <trkpt lat="48.93552" lon="1.69373">
        <ele>44</ele>
        <time>2023-06-30T15:50:20Z</time>
      </trkpt>
      <trkpt lat="48.93583" lon="1.69386">
        <ele>43</ele>
        <time>2023-06-30T15:51:03Z</time>
      </trkpt>
      <trkpt lat="48.93599" lon="1.6939">
        <ele>44</ele>
        <time>2023-06-30T15:51:24Z</time>
      </trkpt>
      <trkpt lat="48.9364" lon="1.69393">
        <ele>43</ele>
        <time>2023-06-30T15:52:19Z</time>
      </trkpt>
      <trkpt lat="48.93661" lon="1.69385">
        <ele>43</ele>
        <time>2023-06-30T15:52:48Z</time>
      </trkpt>
      <trkpt lat="48.93687" lon="1.69382">
        <ele>42</ele>
        <time>2023-06-30T15:53:23Z</time>
      </trkpt>
      <trkpt lat="48.93774" lon="1.69398">
        <ele>43</ele>
        <time>2023-06-30T15:55:20Z</time>
      </trkpt>
      <trkpt lat="48.93788" lon="1.69401">
        <ele>43</ele>
        <time>2023-06-30T15:55:39Z</time>
      </trkpt>
      <trkpt lat="48.93798" lon="1.69407">
        <ele>43</ele>
        <time>2023-06-30T15:55:53Z</time>
      </trkpt>
      <trkpt lat="48.93811" lon="1.69419">
        <ele>43</ele>
        <time>2023-06-30T15:56:13Z</time>
      </trkpt>
      <trkpt lat="48.9385" lon="1.69442">
        <ele>45</ele>
        <time>2023-06-30T15:57:09Z</time>
      </trkpt>
      <trkpt lat="48.93889" lon="1.69456">
        <ele>45</ele>
        <time>2023-06-30T15:58:03Z</time>
      </trkpt>
      <trkpt lat="48.93933" lon="1.69463">
        <ele>44</ele>
        <time>2023-06-30T15:59:02Z</time>
      </trkpt>
      <trkpt lat="48.93952" lon="1.69467">
        <ele>43</ele>
        <time>2023-06-30T15:59:27Z</time>
      </trkpt>
      <trkpt lat="48.93991" lon="1.69491">
        <ele>43</ele>
        <time>2023-06-30T16:00:23Z</time>
      </trkpt>
      <trkpt lat="48.94003" lon="1.69501">
        <ele>43</ele>
        <time>2023-06-30T16:00:42Z</time>
      </trkpt>
      <trkpt lat="48.94047" lon="1.69549">
        <ele>44</ele>
        <time>2023-06-30T16:01:54Z</time>
      </trkpt>
      <trkpt lat="48.94048" lon="1.69549">
        <ele>44</ele>
        <time>2023-06-30T16:01:55Z</time>
      </trkpt>
      <trkpt lat="48.94047" lon="1.69549">
        <ele>44</ele>
        <time>2023-06-30T16:01:56Z</time>
      </trkpt>
      <trkpt lat="48.94064" lon="1.69575">
        <ele>43</ele>
        <time>2023-06-30T16:02:29Z</time>
      </trkpt>
      <trkpt lat="48.94043" lon="1.69647">
        <ele>55</ele>
        <time>2023-06-30T16:03:38Z</time>
      </trkpt>
      <trkpt lat="48.9403" lon="1.69699">
        <ele>65</ele>
        <time>2023-06-30T16:04:26Z</time>
      </trkpt>
      <trkpt lat="48.94029" lon="1.69709">
        <ele>67</ele>
        <time>2023-06-30T16:04:35Z</time>
      </trkpt>
      <trkpt lat="48.94032" lon="1.69718">
        <ele>67</ele>
        <time>2023-06-30T16:04:44Z</time>
      </trkpt>
      <trkpt lat="48.94042" lon="1.69735">
        <ele>68</ele>
        <time>2023-06-30T16:05:04Z</time>
      </trkpt>
      <trkpt lat="48.94047" lon="1.69753">
        <ele>70</ele>
        <time>2023-06-30T16:05:21Z</time>
      </trkpt>
      <trkpt lat="48.94037" lon="1.69783">
        <ele>74</ele>
        <time>2023-06-30T16:05:51Z</time>
      </trkpt>
      <trkpt lat="48.94035" lon="1.69832">
        <ele>79</ele>
        <time>2023-06-30T16:06:34Z</time>
      </trkpt>
      <trkpt lat="48.94038" lon="1.69838">
        <ele>79</ele>
        <time>2023-06-30T16:06:40Z</time>
      </trkpt>
      <trkpt lat="48.94053" lon="1.69904">
        <ele>84</ele>
        <time>2023-06-30T16:07:42Z</time>
      </trkpt>
      <trkpt lat="48.94065" lon="1.69966">
        <ele>88</ele>
        <time>2023-06-30T16:08:38Z</time>
      </trkpt>
      <trkpt lat="48.94064" lon="1.69997">
        <ele>90</ele>
        <time>2023-06-30T16:09:06Z</time>
      </trkpt>
      <trkpt lat="48.94054" lon="1.70049">
        <ele>96</ele>
        <time>2023-06-30T16:09:53Z</time>
      </trkpt>
      <trkpt lat="48.9405" lon="1.7012">
        <ele>106</ele>
        <time>2023-06-30T16:10:55Z</time>
      </trkpt>
      <trkpt lat="48.9405" lon="1.70142">
        <ele>110</ele>
        <time>2023-06-30T16:11:15Z</time>
      </trkpt>
      <trkpt lat="48.94064" lon="1.70223">
        <ele>119</ele>
        <time>2023-06-30T16:12:28Z</time>
      </trkpt>
      <trkpt lat="48.94066" lon="1.70261">
        <ele>122</ele>
        <time>2023-06-30T16:13:02Z</time>
      </trkpt>
      <trkpt lat="48.94069" lon="1.70283">
        <ele>123</ele>
        <time>2023-06-30T16:13:21Z</time>
      </trkpt>
      <trkpt lat="48.94078" lon="1.70328">
        <ele>126</ele>
        <time>2023-06-30T16:14:03Z</time>
      </trkpt>
      <trkpt lat="48.94078" lon="1.70342">
        <ele>126</ele>
        <time>2023-06-30T16:14:15Z</time>
      </trkpt>
      <trkpt lat="48.94069" lon="1.70469">
        <ele>125</ele>
        <time>2023-06-30T16:16:07Z</time>
      </trkpt>
      <trkpt lat="48.94032" lon="1.70599">
        <ele>127</ele>
        <time>2023-06-30T16:18:11Z</time>
      </trkpt>
      <trkpt lat="48.93981" lon="1.7074">
        <ele>126</ele>
        <time>2023-06-30T16:20:32Z</time>
      </trkpt>
      <trkpt lat="48.93968" lon="1.709">
        <ele>129</ele>
        <time>2023-06-30T16:22:53Z</time>
      </trkpt>
      <trkpt lat="48.93968" lon="1.70924">
        <ele>130</ele>
        <time>2023-06-30T16:23:14Z</time>
      </trkpt>
      <trkpt lat="48.93971" lon="1.70954">
        <ele>131</ele>
        <time>2023-06-30T16:23:41Z</time>
      </trkpt>
      <trkpt lat="48.93982" lon="1.71015">
        <ele>133</ele>
        <time>2023-06-30T16:24:36Z</time>
      </trkpt>
      <trkpt lat="48.93995" lon="1.71099">
        <ele>133</ele>
        <time>2023-06-30T16:25:52Z</time>
      </trkpt>
      <trkpt lat="48.94001" lon="1.71114">
        <ele>133</ele>
        <time>2023-06-30T16:26:07Z</time>
      </trkpt>
      <trkpt lat="48.94048" lon="1.71154">
        <ele>133</ele>
        <time>2023-06-30T16:27:19Z</time>
      </trkpt>
      <trkpt lat="48.94075" lon="1.71181">
        <ele>133</ele>
        <time>2023-06-30T16:28:02Z</time>
      </trkpt>
      <trkpt lat="48.94091" lon="1.71201">
        <ele>132</ele>
        <time>2023-06-30T16:28:30Z</time>
      </trkpt>
      <trkpt lat="48.94078" lon="1.71263">
        <ele>132</ele>
        <time>2023-06-30T16:29:27Z</time>
      </trkpt>
      <trkpt lat="48.94061" lon="1.71326">
        <ele>133</ele>
        <time>2023-06-30T16:30:27Z</time>
      </trkpt>
      <trkpt lat="48.94061" lon="1.71336">
        <ele>133</ele>
        <time>2023-06-30T16:30:36Z</time>
      </trkpt>
      <trkpt lat="48.94039" lon="1.71422">
        <ele>137</ele>
        <time>2023-06-30T16:31:56Z</time>
      </trkpt>
      <trkpt lat="48.94025" lon="1.71486">
        <ele>137</ele>
        <time>2023-06-30T16:32:56Z</time>
      </trkpt>
      <trkpt lat="48.93991" lon="1.71586">
        <ele>136</ele>
        <time>2023-06-30T16:34:34Z</time>
      </trkpt>
      <trkpt lat="48.93989" lon="1.71599">
        <ele>136</ele>
        <time>2023-06-30T16:34:46Z</time>
      </trkpt>
      <trkpt lat="48.9398" lon="1.71613">
        <ele>137</ele>
        <time>2023-06-30T16:35:03Z</time>
      </trkpt>
      <trkpt lat="48.93964" lon="1.71636">
        <ele>138</ele>
        <time>2023-06-30T16:35:33Z</time>
      </trkpt>
      <trkpt lat="48.93935" lon="1.71692">
        <ele>139</ele>
        <time>2023-06-30T16:36:35Z</time>
      </trkpt>
      <trkpt lat="48.93858" lon="1.71899">
        <ele>140</ele>
        <time>2023-06-30T16:40:04Z</time>
      </trkpt>
      <trkpt lat="48.93839" lon="1.72022">
        <ele>139</ele>
        <time>2023-06-30T16:41:54Z</time>
      </trkpt>
      <trkpt lat="48.93836" lon="1.72145">
        <ele>138</ele>
        <time>2023-06-30T16:43:42Z</time>
      </trkpt>
      <trkpt lat="48.93843" lon="1.72231">
        <ele>138</ele>
        <time>2023-06-30T16:44:58Z</time>
      </trkpt>
      <trkpt lat="48.93849" lon="1.72242">
        <ele>138</ele>
        <time>2023-06-30T16:45:11Z</time>
      </trkpt>
      <trkpt lat="48.9389" lon="1.72387">
        <ele>136</ele>
        <time>2023-06-30T16:47:29Z</time>
      </trkpt>
      <trkpt lat="48.93887" lon="1.72385">
        <ele>137</ele>
        <time>2023-06-30T16:47:33Z</time>
      </trkpt>
      <trkpt lat="48.9389" lon="1.72387">
        <ele>136</ele>
        <time>2023-06-30T16:47:38Z</time>
      </trkpt>
      <trkpt lat="48.93924" lon="1.72421">
        <ele>135</ele>
        <time>2023-06-30T16:48:32Z</time>
      </trkpt>
      <trkpt lat="48.93974" lon="1.72486">
        <ele>132</ele>
        <time>2023-06-30T16:50:00Z</time>
      </trkpt>
      <trkpt lat="48.93992" lon="1.72513">
        <ele>131</ele>
        <time>2023-06-30T16:50:34Z</time>
      </trkpt>
      <trkpt lat="48.9403" lon="1.72579">
        <ele>130</ele>
        <time>2023-06-30T16:51:51Z</time>
      </trkpt>
      <trkpt lat="48.94017" lon="1.72605">
        <ele>130</ele>
        <time>2023-06-30T16:52:19Z</time>
      </trkpt>
      <trkpt lat="48.94005" lon="1.72637">
        <ele>131</ele>
        <time>2023-06-30T16:52:51Z</time>
      </trkpt>
      <trkpt lat="48.93916" lon="1.72937">
        <ele>130</ele>
        <time>2023-06-30T16:57:40Z</time>
      </trkpt>
      <trkpt lat="48.93907" lon="1.72956">
        <ele>129</ele>
        <time>2023-06-30T16:58:01Z</time>
      </trkpt>
      <trkpt lat="48.93879" lon="1.73003">
        <ele>128</ele>
        <time>2023-06-30T16:58:56Z</time>
      </trkpt>
      <trkpt lat="48.93872" lon="1.73019">
        <ele>127</ele>
        <time>2023-06-30T16:59:13Z</time>
      </trkpt>
      <trkpt lat="48.93855" lon="1.7309">
        <ele>125</ele>
        <time>2023-06-30T17:00:19Z</time>
      </trkpt>
      <trkpt lat="48.9383" lon="1.73166">
        <ele>121</ele>
        <time>2023-06-30T17:01:34Z</time>
      </trkpt>
      <trkpt lat="48.93793" lon="1.73242">
        <ele>118</ele>
        <time>2023-06-30T17:02:57Z</time>
      </trkpt>
      <trkpt lat="48.93763" lon="1.73296">
        <ele>118</ele>
        <time>2023-06-30T17:03:59Z</time>
      </trkpt>
      <trkpt lat="48.93737" lon="1.73332">
        <ele>118</ele>
        <time>2023-06-30T17:04:46Z</time>
      </trkpt>
      <trkpt lat="48.93732" lon="1.73348">
        <ele>119</ele>
        <time>2023-06-30T17:05:01Z</time>
      </trkpt>
      <trkpt lat="48.93843" lon="1.73634">
        <ele>132</ele>
        <time>2023-06-30T17:09:52Z</time>
      </trkpt>
      <trkpt lat="48.93898" lon="1.73794">
        <ele>128</ele>
        <time>2023-06-30T17:12:31Z</time>
      </trkpt>
      <trkpt lat="48.9393" lon="1.739">
        <ele>130</ele>
        <time>2023-06-30T17:14:13Z</time>
      </trkpt>
      <trkpt lat="48.93951" lon="1.73954">
        <ele>132</ele>
        <time>2023-06-30T17:15:08Z</time>
      </trkpt>
      <trkpt lat="48.93982" lon="1.74025">
        <ele>134</ele>
        <time>2023-06-30T17:16:23Z</time>
      </trkpt>
      <trkpt lat="48.93999" lon="1.74099">
        <ele>135</ele>
        <time>2023-06-30T17:17:31Z</time>
      </trkpt>
      <trkpt lat="48.94028" lon="1.74187">
        <ele>134</ele>
        <time>2023-06-30T17:18:58Z</time>
      </trkpt>
      <trkpt lat="48.9407" lon="1.74447">
        <ele>129</ele>
        <time>2023-06-30T17:22:52Z</time>
      </trkpt>
      <trkpt lat="48.94073" lon="1.74534">
        <ele>128</ele>
        <time>2023-06-30T17:24:09Z</time>
      </trkpt>
      <trkpt lat="48.9408" lon="1.74588">
        <ele>127</ele>
        <time>2023-06-30T17:24:57Z</time>
      </trkpt>
      <trkpt lat="48.94084" lon="1.74651">
        <ele>125</ele>
        <time>2023-06-30T17:25:52Z</time>
      </trkpt>
      <trkpt lat="48.94063" lon="1.74848">
        <ele>115</ele>
        <time>2023-06-30T17:28:47Z</time>
      </trkpt>
      <trkpt lat="48.94065" lon="1.74854">
        <ele>115</ele>
        <time>2023-06-30T17:28:53Z</time>
      </trkpt>
      <trkpt lat="48.94069" lon="1.74869">
        <ele>114</ele>
        <time>2023-06-30T17:29:07Z</time>
      </trkpt>
      <trkpt lat="48.94041" lon="1.74973">
        <ele>108</ele>
        <time>2023-06-30T17:30:46Z</time>
      </trkpt>
      <trkpt lat="48.9404" lon="1.74991">
        <ele>107</ele>
        <time>2023-06-30T17:31:02Z</time>
      </trkpt>
      <trkpt lat="48.94071" lon="1.75121">
        <ele>93</ele>
        <time>2023-06-30T17:33:03Z</time>
      </trkpt>
      <trkpt lat="48.94082" lon="1.75163">
        <ele>88</ele>
        <time>2023-06-30T17:33:43Z</time>
      </trkpt>
      <trkpt lat="48.94076" lon="1.75167">
        <ele>89</ele>
        <time>2023-06-30T17:33:51Z</time>
      </trkpt>
      <trkpt lat="48.9407" lon="1.75184">
        <ele>90</ele>
        <time>2023-06-30T17:34:08Z</time>
      </trkpt>
      <trkpt lat="48.94069" lon="1.75204">
        <ele>90</ele>
        <time>2023-06-30T17:34:26Z</time>
      </trkpt>
      <trkpt lat="48.94151" lon="1.75409">
        <ele>76</ele>
        <time>2023-06-30T17:37:56Z</time>
      </trkpt>
      <trkpt lat="48.94172" lon="1.75485">
        <ele>70</ele>
        <time>2023-06-30T17:39:08Z</time>
      </trkpt>
      <trkpt lat="48.94177" lon="1.75495">
        <ele>69</ele>
        <time>2023-06-30T17:39:20Z</time>
      </trkpt>
      <trkpt lat="48.94195" lon="1.75515">
        <ele>65</ele>
        <time>2023-06-30T17:39:49Z</time>
      </trkpt>
      <trkpt lat="48.94214" lon="1.75529">
        <ele>62</ele>
        <time>2023-06-30T17:40:17Z</time>
      </trkpt>
      <trkpt lat="48.94212" lon="1.75543">
        <ele>61</ele>
        <time>2023-06-30T17:40:30Z</time>
      </trkpt>
      <trkpt lat="48.94183" lon="1.7562">
        <ele>62</ele>
        <time>2023-06-30T17:41:48Z</time>
      </trkpt>
      <trkpt lat="48.94175" lon="1.75646">
        <ele>61</ele>
        <time>2023-06-30T17:42:13Z</time>
      </trkpt>
      <trkpt lat="48.94171" lon="1.75662">
        <ele>61</ele>
        <time>2023-06-30T17:42:28Z</time>
      </trkpt>
      <trkpt lat="48.94163" lon="1.75714">
        <ele>60</ele>
        <time>2023-06-30T17:43:15Z</time>
      </trkpt>
      <trkpt lat="48.94163" lon="1.75731">
        <ele>60</ele>
        <time>2023-06-30T17:43:30Z</time>
      </trkpt>
      <trkpt lat="48.94168" lon="1.75826">
        <ele>60</ele>
        <time>2023-06-30T17:44:53Z</time>
      </trkpt>
      <trkpt lat="48.94177" lon="1.75897">
        <ele>60</ele>
        <time>2023-06-30T17:45:57Z</time>
      </trkpt>
      <trkpt lat="48.94178" lon="1.75933">
        <ele>60</ele>
        <time>2023-06-30T17:46:28Z</time>
      </trkpt>
      <trkpt lat="48.94173" lon="1.75966">
        <ele>60</ele>
        <time>2023-06-30T17:46:58Z</time>
      </trkpt>
      <trkpt lat="48.94119" lon="1.76125">
        <ele>63</ele>
        <time>2023-06-30T17:49:35Z</time>
      </trkpt>
      <trkpt lat="48.94086" lon="1.76192">
        <ele>61</ele>
        <time>2023-06-30T17:50:48Z</time>
      </trkpt>
      <trkpt lat="48.94079" lon="1.7621">
        <ele>62</ele>
        <time>2023-06-30T17:51:06Z</time>
      </trkpt>
      <trkpt lat="48.94058" lon="1.76269">
        <ele>62</ele>
        <time>2023-06-30T17:52:05Z</time>
      </trkpt>
      <trkpt lat="48.94019" lon="1.76389">
        <ele>63</ele>
        <time>2023-06-30T17:54:03Z</time>
      </trkpt>
      <trkpt lat="48.93988" lon="1.76513">
        <ele>69</ele>
        <time>2023-06-30T17:55:59Z</time>
      </trkpt>
      <trkpt lat="48.93972" lon="1.76602">
        <ele>77</ele>
        <time>2023-06-30T17:57:20Z</time>
      </trkpt>
      <trkpt lat="48.93968" lon="1.76668">
        <ele>79</ele>
        <time>2023-06-30T17:58:18Z</time>
      </trkpt>
      <trkpt lat="48.93957" lon="1.76708">
        <ele>78</ele>
        <time>2023-06-30T17:58:56Z</time>
      </trkpt>
      <trkpt lat="48.93927" lon="1.76741">
        <ele>80</ele>
        <time>2023-06-30T17:59:45Z</time>
      </trkpt>
      <trkpt lat="48.93846" lon="1.76797">
        <ele>80</ele>
        <time>2023-06-30T18:01:44Z</time>
      </trkpt>
      <trkpt lat="48.93653" lon="1.76919">
        <ele>77</ele>
        <time>2023-06-30T18:06:23Z</time>
      </trkpt>
      <trkpt lat="48.93587" lon="1.76946">
        <ele>75</ele>
        <time>2023-06-30T18:07:54Z</time>
      </trkpt>
      <trkpt lat="48.93567" lon="1.76962">
        <ele>73</ele>
        <time>2023-06-30T18:08:24Z</time>
      </trkpt>
      <trkpt lat="48.93561" lon="1.7697">
        <ele>73</ele>
        <time>2023-06-30T18:08:35Z</time>
      </trkpt>
      <trkpt lat="48.93551" lon="1.76983">
        <ele>72</ele>
        <time>2023-06-30T18:08:52Z</time>
      </trkpt>
      <trkpt lat="48.93541" lon="1.77023">
        <ele>72</ele>
        <time>2023-06-30T18:09:30Z</time>
      </trkpt>
      <trkpt lat="48.93535" lon="1.7706">
        <ele>73</ele>
        <time>2023-06-30T18:10:03Z</time>
      </trkpt>
      <trkpt lat="48.93532" lon="1.77102">
        <ele>75</ele>
        <time>2023-06-30T18:10:40Z</time>
      </trkpt>
      <trkpt lat="48.93501" lon="1.77208">
        <ele>76</ele>
        <time>2023-06-30T18:12:22Z</time>
      </trkpt>
      <trkpt lat="48.9348" lon="1.77263">
        <ele>78</ele>
        <time>2023-06-30T18:13:18Z</time>
      </trkpt>
      <trkpt lat="48.93448" lon="1.77319">
        <ele>80</ele>
        <time>2023-06-30T18:14:23Z</time>
      </trkpt>
      <trkpt lat="48.93421" lon="1.77346">
        <ele>79</ele>
        <time>2023-06-30T18:15:06Z</time>
      </trkpt>
      <trkpt lat="48.93384" lon="1.77369">
        <ele>82</ele>
        <time>2023-06-30T18:15:59Z</time>
      </trkpt>
      <trkpt lat="48.93319" lon="1.77372">
        <ele>81</ele>
        <time>2023-06-30T18:17:26Z</time>
      </trkpt>
      <trkpt lat="48.93239" lon="1.77366">
        <ele>79</ele>
        <time>2023-06-30T18:19:13Z</time>
      </trkpt>
      <trkpt lat="48.93219" lon="1.7737">
        <ele>78</ele>
        <time>2023-06-30T18:19:40Z</time>
      </trkpt>
      <trkpt lat="48.93198" lon="1.77371">
        <ele>77</ele>
        <time>2023-06-30T18:20:08Z</time>
      </trkpt>
      <trkpt lat="48.93181" lon="1.77381">
        <ele>77</ele>
        <time>2023-06-30T18:20:32Z</time>
      </trkpt>
      <trkpt lat="48.93169" lon="1.77381">
        <ele>76</ele>
        <time>2023-06-30T18:20:48Z</time>
      </trkpt>
      <trkpt lat="48.93106" lon="1.77469">
        <ele>78</ele>
        <time>2023-06-30T18:22:42Z</time>
      </trkpt>
      <trkpt lat="48.93085" lon="1.77481">
        <ele>76</ele>
        <time>2023-06-30T18:23:12Z</time>
      </trkpt>
      <trkpt lat="48.93066" lon="1.77499">
        <ele>77</ele>
        <time>2023-06-30T18:23:42Z</time>
      </trkpt>
      <trkpt lat="48.93027" lon="1.77547">
        <ele>80</ele>
        <time>2023-06-30T18:24:49Z</time>
      </trkpt>
      <trkpt lat="48.92998" lon="1.7761">
        <ele>80</ele>
        <time>2023-06-30T18:25:57Z</time>
      </trkpt>
      <trkpt lat="48.9295" lon="1.77692">
        <ele>81</ele>
        <time>2023-06-30T18:27:33Z</time>
      </trkpt>
      <trkpt lat="48.92931" lon="1.77705">
        <ele>80</ele>
        <time>2023-06-30T18:28:01Z</time>
      </trkpt>
      <trkpt lat="48.92899" lon="1.77719">
        <ele>80</ele>
        <time>2023-06-30T18:28:45Z</time>
      </trkpt>
      <trkpt lat="48.92899" lon="1.77722">
        <ele>80</ele>
        <time>2023-06-30T18:28:48Z</time>
      </trkpt>
      <trkpt lat="48.929" lon="1.77727">
        <ele>80</ele>
        <time>2023-06-30T18:28:52Z</time>
      </trkpt>
      <trkpt lat="48.92903" lon="1.7783">
        <ele>91</ele>
        <time>2023-06-30T18:30:23Z</time>
      </trkpt>
      <trkpt lat="48.92995" lon="1.78046">
        <ele>117</ele>
        <time>2023-06-30T18:34:08Z</time>
      </trkpt>
      <trkpt lat="48.9292" lon="1.78081">
        <ele>119</ele>
        <time>2023-06-30T18:35:53Z</time>
      </trkpt>
      <trkpt lat="48.92898" lon="1.78095">
        <ele>121</ele>
        <time>2023-06-30T18:36:25Z</time>
      </trkpt>
      <trkpt lat="48.92918" lon="1.78124">
        <ele>123</ele>
        <time>2023-06-30T18:37:02Z</time>
      </trkpt>
      <trkpt lat="48.92921" lon="1.7815">
        <ele>125</ele>
        <time>2023-06-30T18:37:25Z</time>
      </trkpt>
      <trkpt lat="48.92924" lon="1.78213">
        <ele>130</ele>
        <time>2023-06-30T18:38:20Z</time>
      </trkpt>
      <trkpt lat="48.92932" lon="1.78296">
        <ele>134</ele>
        <time>2023-06-30T18:39:34Z</time>
      </trkpt>
      <trkpt lat="48.92871" lon="1.78342">
        <ele>134</ele>
        <time>2023-06-30T18:41:05Z</time>
      </trkpt>
      <trkpt lat="48.92796" lon="1.78432">
        <ele>133</ele>
        <time>2023-06-30T18:43:12Z</time>
      </trkpt>
      <trkpt lat="48.92609" lon="1.78705">
        <ele>127</ele>
        <time>2023-06-30T18:48:58Z</time>
      </trkpt>
      <trkpt lat="48.92607" lon="1.78701">
        <ele>127</ele>
        <time>2023-06-30T18:49:02Z</time>
      </trkpt>
      <trkpt lat="48.92586" lon="1.78659">
        <ele>126</ele>
        <time>2023-06-30T18:49:49Z</time>
      </trkpt>
      <trkpt lat="48.92563" lon="1.78603">
        <ele>126</ele>
        <time>2023-06-30T18:50:47Z</time>
      </trkpt>
      <trkpt lat="48.92521" lon="1.78464">
        <ele>118</ele>
        <time>2023-06-30T18:53:01Z</time>
      </trkpt>
      <trkpt lat="48.92516" lon="1.78441">
        <ele>117</ele>
        <time>2023-06-30T18:53:22Z</time>
      </trkpt>
      <trkpt lat="48.92493" lon="1.78413">
        <ele>113</ele>
        <time>2023-06-30T18:54:01Z</time>
      </trkpt>
      <trkpt lat="48.92465" lon="1.78373">
        <ele>108</ele>
        <time>2023-06-30T18:54:52Z</time>
      </trkpt>
      <trkpt lat="48.92407" lon="1.78322">
        <ele>96</ele>
        <time>2023-06-30T18:56:22Z</time>
      </trkpt>
      <trkpt lat="48.92353" lon="1.78274">
        <ele>90</ele>
        <time>2023-06-30T18:57:45Z</time>
      </trkpt>
      <trkpt lat="48.92293" lon="1.78137">
        <ele>88</ele>
        <time>2023-06-30T19:00:10Z</time>
      </trkpt>
      <trkpt lat="48.92176" lon="1.77954">
        <ele>111</ele>
        <time>2023-06-30T19:03:54Z</time>
      </trkpt>
      <trkpt lat="48.92175" lon="1.77952">
        <ele>112</ele>
        <time>2023-06-30T19:03:56Z</time>
      </trkpt>
      <trkpt lat="48.92099" lon="1.77868">
        <ele>118</ele>
        <time>2023-06-30T19:06:01Z</time>
      </trkpt>
      <trkpt lat="48.91928" lon="1.77664">
        <ele>128</ele>
        <time>2023-06-30T19:10:51Z</time>
      </trkpt>
      <trkpt lat="48.91774" lon="1.77567">
        <ele>127</ele>
        <time>2023-06-30T19:14:33Z</time>
      </trkpt>
      <trkpt lat="48.91756" lon="1.77548">
        <ele>128</ele>
        <time>2023-06-30T19:15:03Z</time>
      </trkpt>
      <trkpt lat="48.917" lon="1.7747">
        <ele>127</ele>
        <time>2023-06-30T19:16:44Z</time>
      </trkpt>
      <trkpt lat="48.91589" lon="1.77339">
        <ele>125</ele>
        <time>2023-06-30T19:19:51Z</time>
      </trkpt>
      <trkpt lat="48.91544" lon="1.77284">
        <ele>124</ele>
        <time>2023-06-30T19:21:09Z</time>
      </trkpt>
      <trkpt lat="48.91442" lon="1.77126">
        <ele>125</ele>
        <time>2023-06-30T19:24:23Z</time>
      </trkpt>
      <trkpt lat="48.91411" lon="1.77071">
        <ele>126</ele>
        <time>2023-06-30T19:25:26Z</time>
      </trkpt>
      <trkpt lat="48.9124" lon="1.76787">
        <ele>132</ele>
        <time>2023-06-30T19:31:04Z</time>
      </trkpt>
      <trkpt lat="48.9115" lon="1.7663">
        <ele>131</ele>
        <time>2023-06-30T19:34:07Z</time>
      </trkpt>
      <trkpt lat="48.91039" lon="1.76429">
        <ele>131</ele>
        <time>2023-06-30T19:37:57Z</time>
      </trkpt>
      <trkpt lat="48.91019" lon="1.76395">
        <ele>131</ele>
        <time>2023-06-30T19:38:37Z</time>
      </trkpt>
      <trkpt lat="48.90917" lon="1.76195">
        <ele>132</ele>
        <time>2023-06-30T19:42:19Z</time>
      </trkpt>
      <trkpt lat="48.90875" lon="1.76106">
        <ele>129</ele>
        <time>2023-06-30T19:43:55Z</time>
      </trkpt>
      <trkpt lat="48.90801" lon="1.75942">
        <ele>130</ele>
        <time>2023-06-30T19:46:50Z</time>
      </trkpt>
      <trkpt lat="48.90728" lon="1.75801">
        <ele>131</ele>
        <time>2023-06-30T19:49:27Z</time>
      </trkpt>
      <trkpt lat="48.90643" lon="1.75683">
        <ele>135</ele>
        <time>2023-06-30T19:52:01Z</time>
      </trkpt>
      <trkpt lat="48.9063" lon="1.7566">
        <ele>135</ele>
        <time>2023-06-30T19:52:27Z</time>
      </trkpt>
      <trkpt lat="48.90524" lon="1.75441">
        <ele>129</ele>
        <time>2023-06-30T19:56:26Z</time>
      </trkpt>
      <trkpt lat="48.9049" lon="1.75382">
        <ele>129</ele>
        <time>2023-06-30T19:57:35Z</time>
      </trkpt>
      <trkpt lat="48.90413" lon="1.7523">
        <ele>129</ele>
        <time>2023-06-30T20:00:23Z</time>
      </trkpt>
      <trkpt lat="48.90374" lon="1.75183">
        <ele>129</ele>
        <time>2023-06-30T20:01:29Z</time>
      </trkpt>
      <trkpt lat="48.9032" lon="1.75112">
        <ele>130</ele>
        <time>2023-06-30T20:03:05Z</time>
      </trkpt>
      <trkpt lat="48.90244" lon="1.75002">
        <ele>131</ele>
        <time>2023-06-30T20:05:25Z</time>
      </trkpt>
      <trkpt lat="48.90205" lon="1.74933">
        <ele>132</ele>
        <time>2023-06-30T20:06:44Z</time>
      </trkpt>
      <trkpt lat="48.89973" lon="1.7445">
        <ele>131</ele>
        <time>2023-06-30T20:15:29Z</time>
      </trkpt>
      <trkpt lat="48.89937" lon="1.74393">
        <ele>130</ele>
        <time>2023-06-30T20:16:39Z</time>
      </trkpt>
      <trkpt lat="48.89934" lon="1.74387">
        <ele>130</ele>
        <time>2023-06-30T20:16:45Z</time>
      </trkpt>
      <trkpt lat="48.89894" lon="1.7431">
        <ele>130</ele>
        <time>2023-06-30T20:18:11Z</time>
      </trkpt>
      <trkpt lat="48.89839" lon="1.74217">
        <ele>131</ele>
        <time>2023-06-30T20:20:01Z</time>
      </trkpt>
      <trkpt lat="48.89587" lon="1.73869">
        <ele>137</ele>
        <time>2023-06-30T20:27:35Z</time>
      </trkpt>
      <trkpt lat="48.89579" lon="1.7383">
        <ele>137</ele>
        <time>2023-06-30T20:28:11Z</time>
      </trkpt>
      <trkpt lat="48.89424" lon="1.73489">
        <ele>144</ele>
        <time>2023-06-30T20:34:15Z</time>
      </trkpt>
      <trkpt lat="48.89361" lon="1.7337">
        <ele>144</ele>
        <time>2023-06-30T20:36:29Z</time>
      </trkpt>
      <trkpt lat="48.89311" lon="1.73247">
        <ele>145</ele>
        <time>2023-06-30T20:38:36Z</time>
      </trkpt>
      <trkpt lat="48.89183" lon="1.7302">
        <ele>149</ele>
        <time>2023-06-30T20:42:58Z</time>
      </trkpt>
      <trkpt lat="48.89201" lon="1.72965">
        <ele>151</ele>
        <time>2023-06-30T20:43:52Z</time>
      </trkpt>
      <trkpt lat="48.89204" lon="1.72933">
        <ele>152</ele>
        <time>2023-06-30T20:44:20Z</time>
      </trkpt>
      <trkpt lat="48.89203" lon="1.72881">
        <ele>155</ele>
        <time>2023-06-30T20:45:06Z</time>
      </trkpt>
      <trkpt lat="48.8921" lon="1.7286">
        <ele>156</ele>
        <time>2023-06-30T20:45:27Z</time>
      </trkpt>
      <trkpt lat="48.89303" lon="1.72658">
        <ele>164</ele>
        <time>2023-06-30T20:49:03Z</time>
      </trkpt>
      <trkpt lat="48.89276" lon="1.7261">
        <ele>167</ele>
        <time>2023-06-30T20:49:58Z</time>
      </trkpt>
      <trkpt lat="48.89218" lon="1.72496">
        <ele>171</ele>
        <time>2023-06-30T20:52:05Z</time>
      </trkpt>
      <trkpt lat="48.89201" lon="1.72447">
        <ele>172</ele>
        <time>2023-06-30T20:52:53Z</time>
      </trkpt>
      <trkpt lat="48.89188" lon="1.72388">
        <ele>173</ele>
        <time>2023-06-30T20:53:48Z</time>
      </trkpt>
      <trkpt lat="48.8919" lon="1.7237">
        <ele>174</ele>
        <time>2023-06-30T20:54:04Z</time>
      </trkpt>
      <trkpt lat="48.89199" lon="1.72349">
        <ele>174</ele>
        <time>2023-06-30T20:54:26Z</time>
      </trkpt>
      <trkpt lat="48.89202" lon="1.72337">
        <ele>174</ele>
        <time>2023-06-30T20:54:37Z</time>
      </trkpt>
      <trkpt lat="48.89205" lon="1.72328">
        <ele>175</ele>
        <time>2023-06-30T20:54:46Z</time>
      </trkpt>
      <trkpt lat="48.89206" lon="1.723">
        <ele>176</ele>
        <time>2023-06-30T20:55:11Z</time>
      </trkpt>
      <trkpt lat="48.89201" lon="1.72243">
        <ele>177</ele>
        <time>2023-06-30T20:56:01Z</time>
      </trkpt>
      <trkpt lat="48.89208" lon="1.72217">
        <ele>177</ele>
        <time>2023-06-30T20:56:26Z</time>
      </trkpt>
      <trkpt lat="48.89213" lon="1.72208">
        <ele>177</ele>
        <time>2023-06-30T20:56:36Z</time>
      </trkpt>
      <trkpt lat="48.89259" lon="1.7217">
        <ele>178</ele>
        <time>2023-06-30T20:57:46Z</time>
      </trkpt>
      <trkpt lat="48.8928" lon="1.72148">
        <ele>178</ele>
        <time>2023-06-30T20:58:20Z</time>
      </trkpt>
      <trkpt lat="48.89283" lon="1.7214">
        <ele>178</ele>
        <time>2023-06-30T20:58:28Z</time>
      </trkpt>
      <trkpt lat="48.89354" lon="1.72118">
        <ele>177</ele>
        <time>2023-06-30T21:00:05Z</time>
      </trkpt>
      <trkpt lat="48.89508" lon="1.72087">
        <ele>163</ele>
        <time>2023-06-30T21:03:32Z</time>
      </trkpt>
      <trkpt lat="48.8952" lon="1.72054">
        <ele>163</ele>
        <time>2023-06-30T21:04:05Z</time>
      </trkpt>
      <trkpt lat="48.89545" lon="1.7202">
        <ele>161</ele>
        <time>2023-06-30T21:04:50Z</time>
      </trkpt>
      <trkpt lat="48.89568" lon="1.71997">
        <ele>160</ele>
        <time>2023-06-30T21:05:27Z</time>
      </trkpt>
      <trkpt lat="48.89581" lon="1.71975">
        <ele>159</ele>
        <time>2023-06-30T21:05:53Z</time>
      </trkpt>
      <trkpt lat="48.89599" lon="1.71953">
        <ele>158</ele>
        <time>2023-06-30T21:06:24Z</time>
      </trkpt>
      <trkpt lat="48.89637" lon="1.71919">
        <ele>156</ele>
        <time>2023-06-30T21:07:22Z</time>
      </trkpt>
      <trkpt lat="48.89647" lon="1.71898">
        <ele>155</ele>
        <time>2023-06-30T21:07:45Z</time>
      </trkpt>
      <trkpt lat="48.89692" lon="1.71856">
        <ele>152</ele>
        <time>2023-06-30T21:08:56Z</time>
      </trkpt>
      <trkpt lat="48.8977" lon="1.71719">
        <ele>149</ele>
        <time>2023-06-30T21:11:35Z</time>
      </trkpt>
      <trkpt lat="48.89794" lon="1.71675">
        <ele>150</ele>
        <time>2023-06-30T21:12:25Z</time>
      </trkpt>
      <trkpt lat="48.89822" lon="1.71612">
        <ele>149</ele>
        <time>2023-06-30T21:13:31Z</time>
      </trkpt>
      <trkpt lat="48.89885" lon="1.715">
        <ele>148</ele>
        <time>2023-06-30T21:15:41Z</time>
      </trkpt>
      <trkpt lat="48.89927" lon="1.71432">
        <ele>149</ele>
        <time>2023-06-30T21:17:03Z</time>
      </trkpt>
      <trkpt lat="48.89945" lon="1.71407">
        <ele>149</ele>
        <time>2023-06-30T21:17:35Z</time>
      </trkpt>
      <trkpt lat="48.89985" lon="1.71342">
        <ele>149</ele>
        <time>2023-06-30T21:18:53Z</time>
      </trkpt>
      <trkpt lat="48.90026" lon="1.71254">
        <ele>151</ele>
        <time>2023-06-30T21:20:28Z</time>
      </trkpt>
      <trkpt lat="48.90047" lon="1.71198">
        <ele>149</ele>
        <time>2023-06-30T21:21:24Z</time>
      </trkpt>
      <trkpt lat="48.90061" lon="1.71154">
        <ele>148</ele>
        <time>2023-06-30T21:22:07Z</time>
      </trkpt>
      <trkpt lat="48.90077" lon="1.71112">
        <ele>146</ele>
        <time>2023-06-30T21:22:50Z</time>
      </trkpt>
      <trkpt lat="48.901" lon="1.71041">
        <ele>144</ele>
        <time>2023-06-30T21:23:59Z</time>
      </trkpt>
      <trkpt lat="48.90117" lon="1.70978">
        <ele>143</ele>
        <time>2023-06-30T21:24:59Z</time>
      </trkpt>
      <trkpt lat="48.90131" lon="1.70905">
        <ele>142</ele>
        <time>2023-06-30T21:26:06Z</time>
      </trkpt>
      <trkpt lat="48.9014" lon="1.70849">
        <ele>143</ele>
        <time>2023-06-30T21:26:56Z</time>
      </trkpt>
      <trkpt lat="48.90154" lon="1.70703">
        <ele>146</ele>
        <time>2023-06-30T21:29:06Z</time>
      </trkpt>
      <trkpt lat="48.90166" lon="1.70632">
        <ele>148</ele>
        <time>2023-06-30T21:30:10Z</time>
      </trkpt>
      <trkpt lat="48.90166" lon="1.70619">
        <ele>149</ele>
        <time>2023-06-30T21:30:21Z</time>
      </trkpt>
      <trkpt lat="48.90051" lon="1.70532">
        <ele>162</ele>
        <time>2023-06-30T21:33:13Z</time>
      </trkpt>
      <trkpt lat="48.89975" lon="1.70461">
        <ele>173</ele>
        <time>2023-06-30T21:35:12Z</time>
      </trkpt>
      <trkpt lat="48.89879" lon="1.70393">
        <ele>176</ele>
        <time>2023-06-30T21:37:33Z</time>
      </trkpt>
      <trkpt lat="48.89846" lon="1.70355">
        <ele>175</ele>
        <time>2023-06-30T21:38:28Z</time>
      </trkpt>
      <trkpt lat="48.8977" lon="1.70224">
        <ele>166</ele>
        <time>2023-06-30T21:41:02Z</time>
      </trkpt>
      <trkpt lat="48.89727" lon="1.7014">
        <ele>160</ele>
        <time>2023-06-30T21:42:35Z</time>
      </trkpt>
      <trkpt lat="48.89736" lon="1.70114">
        <ele>160</ele>
        <time>2023-06-30T21:43:01Z</time>
      </trkpt>
      <trkpt lat="48.89735" lon="1.70116">
        <ele>160</ele>
        <time>2023-06-30T21:43:03Z</time>
      </trkpt>
      <trkpt lat="48.89723" lon="1.70074">
        <ele>158</ele>
        <time>2023-06-30T21:43:43Z</time>
      </trkpt>
      <trkpt lat="48.8971" lon="1.69999">
        <ele>155</ele>
        <time>2023-06-30T21:44:51Z</time>
      </trkpt>
      <trkpt lat="48.89686" lon="1.69901">
        <ele>151</ele>
        <time>2023-06-30T21:46:23Z</time>
      </trkpt>
      <trkpt lat="48.8966" lon="1.69766">
        <ele>147</ele>
        <time>2023-06-30T21:48:26Z</time>
      </trkpt>
      <trkpt lat="48.89641" lon="1.69695">
        <ele>146</ele>
        <time>2023-06-30T21:49:34Z</time>
      </trkpt>
      <trkpt lat="48.89595" lon="1.69602">
        <ele>145</ele>
        <time>2023-06-30T21:51:16Z</time>
      </trkpt>
      <trkpt lat="48.89543" lon="1.69528">
        <ele>141</ele>
        <time>2023-06-30T21:52:51Z</time>
      </trkpt>
      <trkpt lat="48.89522" lon="1.6951">
        <ele>140</ele>
        <time>2023-06-30T21:53:23Z</time>
      </trkpt>
      <trkpt lat="48.89495" lon="1.69472">
        <ele>137</ele>
        <time>2023-06-30T21:54:12Z</time>
      </trkpt>
      <trkpt lat="48.89462" lon="1.6943">
        <ele>133</ele>
        <time>2023-06-30T21:55:10Z</time>
      </trkpt>
      <trkpt lat="48.89436" lon="1.69389">
        <ele>129</ele>
        <time>2023-06-30T21:56:00Z</time>
      </trkpt>
      <trkpt lat="48.89432" lon="1.69386">
        <ele>129</ele>
        <time>2023-06-30T21:56:05Z</time>
      </trkpt>
      <trkpt lat="48.89428" lon="1.69386">
        <ele>129</ele>
        <time>2023-06-30T21:56:11Z</time>
      </trkpt>
      <trkpt lat="48.89404" lon="1.69217">
        <ele>125</ele>
        <time>2023-06-30T21:58:42Z</time>
      </trkpt>
      <trkpt lat="48.89368" lon="1.68891">
        <ele>115</ele>
        <time>2023-06-30T22:03:33Z</time>
      </trkpt>
      <trkpt lat="48.89336" lon="1.68596">
        <ele>107</ele>
        <time>2023-06-30T22:07:55Z</time>
      </trkpt>
      <trkpt lat="48.89366" lon="1.68572">
        <ele>108</ele>
        <time>2023-06-30T22:08:40Z</time>
      </trkpt>
      <trkpt lat="48.89302" lon="1.68403">
        <ele>102</ele>
        <time>2023-06-30T22:11:31Z</time>
      </trkpt>
      <trkpt lat="48.89299" lon="1.68407">
        <ele>102</ele>
        <time>2023-06-30T22:11:37Z</time>
      </trkpt>
      <trkpt lat="48.89294" lon="1.68405">
        <ele>102</ele>
        <time>2023-06-30T22:11:43Z</time>
      </trkpt>
      <trkpt lat="48.89287" lon="1.68394">
        <ele>101</ele>
        <time>2023-06-30T22:11:57Z</time>
      </trkpt>
      <trkpt lat="48.89287" lon="1.68384">
        <ele>101</ele>
        <time>2023-06-30T22:12:06Z</time>
      </trkpt>
      <trkpt lat="48.89291" lon="1.68365">
        <ele>100</ele>
        <time>2023-06-30T22:12:23Z</time>
      </trkpt>
      <trkpt lat="48.89295" lon="1.68335">
        <ele>99</ele>
        <time>2023-06-30T22:12:50Z</time>
      </trkpt>
      <trkpt lat="48.89298" lon="1.68291">
        <ele>95</ele>
        <time>2023-06-30T22:13:29Z</time>
      </trkpt>
      <trkpt lat="48.89297" lon="1.68274">
        <ele>93</ele>
        <time>2023-06-30T22:13:44Z</time>
      </trkpt>
      <trkpt lat="48.89288" lon="1.68226">
        <ele>87</ele>
        <time>2023-06-30T22:14:28Z</time>
      </trkpt>
      <trkpt lat="48.89289" lon="1.68217">
        <ele>86</ele>
        <time>2023-06-30T22:14:36Z</time>
      </trkpt>
      <trkpt lat="48.8927" lon="1.68211">
        <ele>83</ele>
        <time>2023-06-30T22:15:01Z</time>
      </trkpt>
      <trkpt lat="48.89267" lon="1.68206">
        <ele>82</ele>
        <time>2023-06-30T22:15:07Z</time>
      </trkpt>
      <trkpt lat="48.89258" lon="1.68183">
        <ele>79</ele>
        <time>2023-06-30T22:15:31Z</time>
      </trkpt>
      <trkpt lat="48.89242" lon="1.68165">
        <ele>77</ele>
        <time>2023-06-30T22:15:57Z</time>
      </trkpt>
      <trkpt lat="48.89238" lon="1.68155">
        <ele>76</ele>
        <time>2023-06-30T22:16:08Z</time>
      </trkpt>
      <trkpt lat="48.89235" lon="1.6814">
        <ele>75</ele>
        <time>2023-06-30T22:16:21Z</time>
      </trkpt>
      <trkpt lat="48.89234" lon="1.68067">
        <ele>71</ele>
        <time>2023-06-30T22:17:26Z</time>
      </trkpt>
      <trkpt lat="48.8923" lon="1.68061">
        <ele>70</ele>
        <time>2023-06-30T22:17:33Z</time>
      </trkpt>
      <trkpt lat="48.8923" lon="1.68052">
        <ele>70</ele>
        <time>2023-06-30T22:17:41Z</time>
      </trkpt>
      <trkpt lat="48.89232" lon="1.68045">
        <ele>69</ele>
        <time>2023-06-30T22:17:48Z</time>
      </trkpt>
      <trkpt lat="48.89233" lon="1.68013">
        <ele>67</ele>
        <time>2023-06-30T22:18:16Z</time>
      </trkpt>
      <trkpt lat="48.8923" lon="1.67941">
        <ele>62</ele>
        <time>2023-06-30T22:19:19Z</time>
      </trkpt>
      <trkpt lat="48.8924" lon="1.67938">
        <ele>62</ele>
        <time>2023-06-30T22:19:33Z</time>
      </trkpt>
      <trkpt lat="48.8923" lon="1.67887">
        <ele>61</ele>
        <time>2023-06-30T22:20:19Z</time>
      </trkpt>
      <trkpt lat="48.89227" lon="1.67885">
        <ele>61</ele>
        <time>2023-06-30T22:20:24Z</time>
      </trkpt>
      <trkpt lat="48.89222" lon="1.67866">
        <ele>61</ele>
        <time>2023-06-30T22:20:42Z</time>
      </trkpt>
      <trkpt lat="48.8922" lon="1.67858">
        <ele>61</ele>
        <time>2023-06-30T22:20:49Z</time>
      </trkpt>
      <trkpt lat="48.89214" lon="1.67837">
        <ele>61</ele>
        <time>2023-06-30T22:21:09Z</time>
      </trkpt>
      <trkpt lat="48.89213" lon="1.67826">
        <ele>62</ele>
        <time>2023-06-30T22:21:19Z</time>
      </trkpt>
      <trkpt lat="48.89286" lon="1.67809">
        <ele>62</ele>
        <time>2023-06-30T22:22:58Z</time>
      </trkpt>
      <trkpt lat="48.89304" lon="1.67801">
        <ele>62</ele>
        <time>2023-06-30T22:23:23Z</time>
      </trkpt>
      <trkpt lat="48.8934" lon="1.6778">
        <ele>61</ele>
        <time>2023-06-30T22:24:14Z</time>
      </trkpt>
      <trkpt lat="48.89387" lon="1.67744">
        <ele>61</ele>
        <time>2023-06-30T22:25:24Z</time>
      </trkpt>
      <trkpt lat="48.89406" lon="1.67719">
        <ele>61</ele>
        <time>2023-06-30T22:25:58Z</time>
      </trkpt>
      <trkpt lat="48.89485" lon="1.676">
        <ele>61</ele>
        <time>2023-06-30T22:28:26Z</time>
      </trkpt>
      <trkpt lat="48.89475" lon="1.6758">
        <ele>62</ele>
        <time>2023-06-30T22:28:48Z</time>
      </trkpt>
      <trkpt lat="48.89466" lon="1.67568">
        <ele>62</ele>
        <time>2023-06-30T22:29:04Z</time>
      </trkpt>
      <trkpt lat="48.89462" lon="1.67556">
        <ele>62</ele>
        <time>2023-06-30T22:29:16Z</time>
      </trkpt>
      <trkpt lat="48.89455" lon="1.67523">
        <ele>63</ele>
        <time>2023-06-30T22:29:46Z</time>
      </trkpt>
      <trkpt lat="48.89436" lon="1.67463">
        <ele>67</ele>
        <time>2023-06-30T22:30:45Z</time>
      </trkpt>
      <trkpt lat="48.89427" lon="1.67385">
        <ele>75</ele>
        <time>2023-06-30T22:31:54Z</time>
      </trkpt>
      <trkpt lat="48.89428" lon="1.67363">
        <ele>76</ele>
        <time>2023-06-30T22:32:14Z</time>
      </trkpt>
      <trkpt lat="48.8947" lon="1.67333">
        <ele>72</ele>
        <time>2023-06-30T22:33:16Z</time>
      </trkpt>
      <trkpt lat="48.89519" lon="1.67305">
        <ele>71</ele>
        <time>2023-06-30T22:34:25Z</time>
      </trkpt>
      <trkpt lat="48.89527" lon="1.67298">
        <ele>71</ele>
        <time>2023-06-30T22:34:38Z</time>
      </trkpt>
      <trkpt lat="48.89537" lon="1.67282">
        <ele>72</ele>
        <time>2023-06-30T22:34:57Z</time>
      </trkpt>
      <trkpt lat="48.89546" lon="1.67258">
        <ele>74</ele>
        <time>2023-06-30T22:35:21Z</time>
      </trkpt>
      <trkpt lat="48.89556" lon="1.67226">
        <ele>77</ele>
        <time>2023-06-30T22:35:52Z</time>
      </trkpt>
      <trkpt lat="48.89562" lon="1.67207">
        <ele>79</ele>
        <time>2023-06-30T22:36:11Z</time>
      </trkpt>
      <trkpt lat="48.89571" lon="1.67195">
        <ele>80</ele>
        <time>2023-06-30T22:36:27Z</time>
      </trkpt>
      <trkpt lat="48.89601" lon="1.67168">
        <ele>80</ele>
        <time>2023-06-30T22:37:13Z</time>
      </trkpt>
      <trkpt lat="48.89614" lon="1.67153">
        <ele>79</ele>
        <time>2023-06-30T22:37:35Z</time>
      </trkpt>
      <trkpt lat="48.8963" lon="1.67131">
        <ele>77</ele>
        <time>2023-06-30T22:38:04Z</time>
      </trkpt>
      <trkpt lat="48.89636" lon="1.67114">
        <ele>76</ele>
        <time>2023-06-30T22:38:21Z</time>
      </trkpt>
      <trkpt lat="48.89641" lon="1.67087">
        <ele>76</ele>
        <time>2023-06-30T22:38:45Z</time>
      </trkpt>
      <trkpt lat="48.89642" lon="1.67071">
        <ele>75</ele>
        <time>2023-06-30T22:39:00Z</time>
      </trkpt>
      <trkpt lat="48.8964" lon="1.67021">
        <ele>74</ele>
        <time>2023-06-30T22:39:44Z</time>
      </trkpt>
      <trkpt lat="48.89618" lon="1.66936">
        <ele>72</ele>
        <time>2023-06-30T22:41:04Z</time>
      </trkpt>
      <trkpt lat="48.89602" lon="1.66897">
        <ele>72</ele>
        <time>2023-06-30T22:41:44Z</time>
      </trkpt>
      <trkpt lat="48.89579" lon="1.6685">
        <ele>73</ele>
        <time>2023-06-30T22:42:35Z</time>
      </trkpt>
      <trkpt lat="48.89566" lon="1.66828">
        <ele>74</ele>
        <time>2023-06-30T22:43:01Z</time>
      </trkpt>
      <trkpt lat="48.89557" lon="1.66818">
        <ele>75</ele>
        <time>2023-06-30T22:43:16Z</time>
      </trkpt>
      <trkpt lat="48.89545" lon="1.66809">
        <ele>76</ele>
        <time>2023-06-30T22:43:34Z</time>
      </trkpt>
      <trkpt lat="48.89512" lon="1.66789">
        <ele>78</ele>
        <time>2023-06-30T22:44:21Z</time>
      </trkpt>
      <trkpt lat="48.89494" lon="1.6677">
        <ele>79</ele>
        <time>2023-06-30T22:44:51Z</time>
      </trkpt>
      <trkpt lat="48.89469" lon="1.6672">
        <ele>79</ele>
        <time>2023-06-30T22:45:46Z</time>
      </trkpt>
      <trkpt lat="48.89447" lon="1.66685">
        <ele>81</ele>
        <time>2023-06-30T22:46:28Z</time>
      </trkpt>
      <trkpt lat="48.89425" lon="1.66623">
        <ele>79</ele>
        <time>2023-06-30T22:47:30Z</time>
      </trkpt>
      <trkpt lat="48.89343" lon="1.6646">
        <ele>83</ele>
        <time>2023-06-30T22:50:30Z</time>
      </trkpt>
      <trkpt lat="48.89331" lon="1.66445">
        <ele>84</ele>
        <time>2023-06-30T22:50:51Z</time>
      </trkpt>
      <trkpt lat="48.89331" lon="1.66439">
        <ele>84</ele>
        <time>2023-06-30T22:50:56Z</time>
      </trkpt>
      <trkpt lat="48.8933" lon="1.66426">
        <ele>83</ele>
        <time>2023-06-30T22:51:08Z</time>
      </trkpt>
      <trkpt lat="48.89321" lon="1.664">
        <ele>82</ele>
        <time>2023-06-30T22:51:33Z</time>
      </trkpt>
      <trkpt lat="48.89299" lon="1.66358">
        <ele>83</ele>
        <time>2023-06-30T22:52:21Z</time>
      </trkpt>
      <trkpt lat="48.8929" lon="1.6633">
        <ele>82</ele>
        <time>2023-06-30T22:52:48Z</time>
      </trkpt>
      <trkpt lat="48.89255" lon="1.66154">
        <ele>81</ele>
        <time>2023-06-30T22:55:29Z</time>
      </trkpt>
      <trkpt lat="48.89247" lon="1.66108">
        <ele>77</ele>
        <time>2023-06-30T22:56:11Z</time>
      </trkpt>
      <trkpt lat="48.89245" lon="1.66076">
        <ele>75</ele>
        <time>2023-06-30T22:56:39Z</time>
      </trkpt>
      <trkpt lat="48.89245" lon="1.66005">
        <ele>72</ele>
        <time>2023-06-30T22:57:41Z</time>
      </trkpt>
      <trkpt lat="48.89248" lon="1.65988">
        <ele>71</ele>
        <time>2023-06-30T22:57:57Z</time>
      </trkpt>
      <trkpt lat="48.89254" lon="1.65979">
        <ele>70</ele>
        <time>2023-06-30T22:58:08Z</time>
      </trkpt>
      <trkpt lat="48.89264" lon="1.65975">
        <ele>69</ele>
        <time>2023-06-30T22:58:22Z</time>
      </trkpt>
      <trkpt lat="48.8933" lon="1.65971">
        <ele>64</ele>
        <time>2023-06-30T22:59:50Z</time>
      </trkpt>
      <trkpt lat="48.89343" lon="1.65967">
        <ele>64</ele>
        <time>2023-06-30T23:00:08Z</time>
      </trkpt>
      <trkpt lat="48.89368" lon="1.65955">
        <ele>65</ele>
        <time>2023-06-30T23:00:43Z</time>
      </trkpt>
      <trkpt lat="48.89382" lon="1.65944">
        <ele>66</ele>
        <time>2023-06-30T23:01:04Z</time>
      </trkpt>
      <trkpt lat="48.89384" lon="1.65935">
        <ele>66</ele>
        <time>2023-06-30T23:01:12Z</time>
      </trkpt>
      <trkpt lat="48.89384" lon="1.65929">
        <ele>66</ele>
        <time>2023-06-30T23:01:17Z</time>
      </trkpt>
    </trkseg>
  </trk>
</gpx>